Time,TemperatureF,DewpointF,PressureIn,WindDirection,WindDirectionDegrees,WindSpeedMPH,WindSpeedGustMPH,Humidity,HourlyPrecipIn,Conditions,Clouds,dailyrainin,SoftwareType,DateUTC
2013-07-14 00:02:00,80.2,75.6,29.88,South,189,4.6,4.6,86,0.00,CLR,,0.00,WeatherDisplay:10.37,2013-07-14 05:02:00,
2013-07-14 00:07:00,80.2,75.6,29.88,South,187,4.6,4.6,86,0.00,CLR,,0.00,WeatherDisplay:10.37,2013-07-14 05:07:00,
2013-07-14 00:12:00,80.2,75.6,29.88,SSW,193,9.2,9.2,86,0.00,CLR,,0.00,WeatherDisplay:10.37,2013-07-14 05:12:00,
2013-07-14 00:17:00,80.2,75.3,29.88,South,173,4.6,4.6,85,0.00,CLR,,0.00,WeatherDisplay:10.37,2013-07-14 05:17:00,
2013-07-14 00:22:00,80.2,75.3,29.88,SSW,194,8.1,8.1,85,0.00,CLR,,0.00,WeatherDisplay:10.37,2013-07-14 05:22:00,
2013-07-14 00:27:00,80.3,75.4,29.88,SSE,162,5.8,5.8,85,0.00,CLR,,0.00,WeatherDisplay:10.37,2013-07-14 05:27:00,
2013-07-14 00:32:00,80.3,75.4,29.88,SSW,208,4.6,4.6,85,0.00,CLR,,0.00,WeatherDisplay:10.37,2013-07-14 05:32:00,
2013-07-14 00:37:00,80.3,75.4,29.88,SSW,199,5.8,5.8,85,0.00,CLR,,0.00,WeatherDisplay:10.37,2013-07-14 05:37:00,
2013-07-14 00:42:00,80.4,75.8,29.88,SSW,202,11.5,11.5,86,0.00,CLR,,0.00,WeatherDisplay:10.37,2013-07-14 05:42:00,
2013-07-14 00:47:00,80.4,75.5,29.88,South,188,11.5,11.5,85,0.00,CLR,,0.00,WeatherDisplay:10.37,2013-07-14 05:47:00,
2013-07-14 00:52:00,80.5,75.6,29.87,SW,231,6.9,6.9,85,0.00,CLR,,0.00,WeatherDisplay:10.37,2013-07-14 05:52:00,
2013-07-14 00:57:00,80.4,75.5,29.87,SSE,160,5.8,5.8,85,0.00,CLR,,0.00,WeatherDisplay:10.37,2013-07-14 05:57:00,
2013-07-14 01:02:00,80.4,75.5,29.86,South,175,12.7,12.7,85,0.00,CLR,,0.00,WeatherDisplay:10.37,2013-07-14 06:02:00,
2013-07-14 01:07:00,80.5,75.6,29.86,SSW,196,5.8,5.8,85,0.00,CLR,,0.00,WeatherDisplay:10.37,2013-07-14 06:07:00,
2013-07-14 01:12:00,80.6,75.7,29.86,SSE,157,6.9,6.9,85,0.00,CLR,,0.00,WeatherDisplay:10.37,2013-07-14 06:12:00,
2013-07-14 01:17:00,80.7,75.8,29.87,SSE,164,3.5,3.5,85,0.00,CLR,,0.00,WeatherDisplay:10.37,2013-07-14 06:17:00,
2013-07-14 01:22:00,80.7,76.1,29.86,SSE,162,9.2,9.2,86,0.00,CLR,,0.00,WeatherDisplay:10.37,2013-07-14 06:22:00,
2013-07-14 01:27:00,80.7,76.1,29.86,SSW,194,9.2,9.2,86,0.00,CLR,,0.00,WeatherDisplay:10.37,2013-07-14 06:27:00,
2013-07-14 01:32:00,80.7,76.1,29.86,South,171,9.2,9.2,86,0.00,CLR,,0.00,WeatherDisplay:10.37,2013-07-14 06:32:00,
2013-07-14 01:37:00,80.7,76.1,29.86,SSW,199,8.1,8.1,86,0.00,CLR,,0.00,WeatherDisplay:10.37,2013-07-14 06:37:00,
2013-07-14 01:42:00,80.6,76.4,29.86,SSW,203,10.4,10.4,87,0.00,CLR,,0.00,WeatherDisplay:10.37,2013-07-14 06:42:00,
2013-07-14 01:47:00,80.6,76.4,29.86,South,174,6.3,6.3,87,0.00,CLR,,0.00,WeatherDisplay:10.37,2013-07-14 06:47:00,
2013-07-14 01:52:00,80.6,76.7,29.86,South,189,12.7,12.7,88,0.00,CLR,,0.00,WeatherDisplay:10.37,2013-07-14 06:52:00,
2013-07-14 01:57:00,80.6,76.4,29.86,SSE,165,8.1,8.1,87,0.00,CLR,,0.00,WeatherDisplay:10.37,2013-07-14 06:57:00,
2013-07-14 02:02:00,80.7,76.8,29.86,SE,141,8.1,8.1,88,0.00,CLR,,0.00,WeatherDisplay:10.37,2013-07-14 07:02:00,
2013-07-14 02:07:00,80.6,76.7,29.86,SSE,151,6.9,6.9,88,0.00,CLR,,0.00,WeatherDisplay:10.37,2013-07-14 07:07:00,
2013-07-14 02:12:00,80.6,76.7,29.86,SSW,196,10.4,10.4,88,0.00,CLR,,0.00,WeatherDisplay:10.37,2013-07-14 07:12:00,
2013-07-14 02:17:00,80.6,76.7,29.86,SSW,212,5.8,5.8,88,0.00,CLR,,0.00,WeatherDisplay:10.37,2013-07-14 07:17:00,
2013-07-14 02:22:00,80.6,76.7,29.86,South,170,5.8,5.8,88,0.00,CLR,,0.00,WeatherDisplay:10.37,2013-07-14 07:22:00,
2013-07-14 02:27:00,80.6,76.7,29.86,South,179,5.8,5.8,88,0.00,CLR,,0.00,WeatherDisplay:10.37,2013-07-14 07:27:00,
2013-07-14 02:32:00,80.6,76.7,29.86,South,174,4.6,4.6,88,0.00,CLR,,0.00,WeatherDisplay:10.37,2013-07-14 07:32:00,
2013-07-14 02:37:00,80.6,76.7,29.86,SW,233,6.9,6.9,88,0.00,CLR,,0.00,WeatherDisplay:10.37,2013-07-14 07:37:00,
2013-07-14 02:42:00,80.7,76.8,29.86,SSW,193,11.5,11.5,88,0.00,CLR,,0.00,WeatherDisplay:10.37,2013-07-14 07:42:00,
2013-07-14 02:47:00,80.8,77.3,29.86,SSW,212,3.5,3.5,89,0.00,CLR,,0.00,WeatherDisplay:10.37,2013-07-14 07:47:00,
2013-07-14 02:52:00,80.7,77.2,29.86,SSW,202,9.2,9.2,89,0.00,CLR,,0.00,WeatherDisplay:10.37,2013-07-14 07:52:00,
2013-07-14 02:57:00,80.7,77.2,29.86,SSE,158,5.8,5.8,89,0.00,CLR,,0.00,WeatherDisplay:10.37,2013-07-14 07:57:00,
2013-07-14 03:02:00,80.7,77.2,29.85,SW,218,5.8,5.8,89,0.00,CLR,,0.00,WeatherDisplay:10.37,2013-07-14 08:02:00,
2013-07-14 03:07:00,80.7,77.2,29.85,SSW,212,5.8,5.8,89,0.00,CLR,,0.00,WeatherDisplay:10.37,2013-07-14 08:07:00,
2013-07-14 03:12:00,80.6,77.1,29.85,SSW,196,5.8,5.8,89,0.00,CLR,,0.00,WeatherDisplay:10.37,2013-07-14 08:12:00,
2013-07-14 03:17:00,80.6,76.7,29.85,SSW,192,5.8,5.8,88,0.00,CLR,,0.00,WeatherDisplay:10.37,2013-07-14 08:17:00,
2013-07-14 03:22:00,80.5,76.6,29.85,South,189,5.8,5.8,88,0.00,CLR,,0.00,WeatherDisplay:10.37,2013-07-14 08:22:00,
2013-07-14 03:27:00,80.6,76.7,29.85,SSW,205,3.5,3.5,88,0.00,CLR,,0.00,WeatherDisplay:10.37,2013-07-14 08:27:00,
2013-07-14 03:32:00,80.6,76.7,29.85,SSW,193,9.2,9.2,88,0.00,CLR,,0.00,WeatherDisplay:10.37,2013-07-14 08:32:00,
2013-07-14 03:37:00,80.6,76.4,29.85,SSW,203,4.6,4.6,87,0.00,CLR,,0.00,WeatherDisplay:10.37,2013-07-14 08:37:00,
2013-07-14 03:42:00,80.6,76.4,29.85,South,189,3.5,3.5,87,0.00,CLR,,0.00,WeatherDisplay:10.37,2013-07-14 08:42:00,
2013-07-14 03:47:00,80.7,76.8,29.85,SSW,207,5.8,5.8,88,0.00,CLR,,0.00,WeatherDisplay:10.37,2013-07-14 08:47:00,
2013-07-14 03:52:00,80.7,76.8,29.85,SW,216,4.6,4.6,88,0.00,CLR,,0.00,WeatherDisplay:10.37,2013-07-14 08:52:00,
2013-07-14 03:57:00,80.8,77.3,29.85,SSW,200,5.8,5.8,89,0.00,CLR,,0.00,WeatherDisplay:10.37,2013-07-14 08:57:00,
2013-07-14 04:02:00,80.8,77.3,29.85,SSW,204,5.8,5.8,89,0.00,CLR,,0.00,WeatherDisplay:10.37,2013-07-14 09:02:00,
2013-07-14 04:07:00,80.6,77.1,29.85,SSW,192,9.2,9.2,89,0.00,CLR,,0.00,WeatherDisplay:10.37,2013-07-14 09:07:00,
2013-07-14 04:12:00,80.6,77.1,29.85,SW,232,6.9,6.9,89,0.00,CLR,,0.00,WeatherDisplay:10.37,2013-07-14 09:12:00,
2013-07-14 04:17:00,80.5,77.3,29.85,SSW,207,5.8,5.8,90,0.00,CLR,,0.00,WeatherDisplay:10.37,2013-07-14 09:17:00,
2013-07-14 04:22:00,80.5,77.3,29.85,SW,231,5.8,5.8,90,0.00,CLR,,0.00,WeatherDisplay:10.37,2013-07-14 09:22:00,
2013-07-14 04:27:00,80.4,77.2,29.85,WSW,247,5.8,5.8,90,0.00,CLR,,0.00,WeatherDisplay:10.37,2013-07-14 09:27:00,
2013-07-14 04:32:00,80.4,77.2,29.85,SSW,200,6.9,6.9,90,0.00,CLR,,0.00,WeatherDisplay:10.37,2013-07-14 09:32:00,
2013-07-14 04:37:00,80.4,77.5,29.85,SSW,195,3.5,3.5,91,0.00,CLR,,0.00,WeatherDisplay:10.37,2013-07-14 09:37:00,
2013-07-14 04:42:00,80.2,77.3,29.85,SW,219,6.9,6.9,91,0.00,CLR,,0.00,WeatherDisplay:10.37,2013-07-14 09:42:00,
2013-07-14 04:47:00,80.1,77.2,29.86,SW,216,5.8,5.8,91,0.00,CLR,,0.00,WeatherDisplay:10.37,2013-07-14 09:47:00,
2013-07-14 04:52:00,79.9,77.0,29.86,SW,216,4.6,4.6,91,0.00,CLR,,0.00,WeatherDisplay:10.37,2013-07-14 09:52:00,
2013-07-14 04:57:00,79.7,76.8,29.86,SSW,210,4.6,4.6,91,0.00,CLR,,0.00,WeatherDisplay:10.37,2013-07-14 09:57:00,
2013-07-14 05:02:00,79.7,76.8,29.86,South,184,5.8,5.8,91,0.00,CLR,,0.00,WeatherDisplay:10.37,2013-07-14 10:02:00,
2013-07-14 05:07:00,79.6,76.7,29.86,SW,220,4.6,4.6,91,0.00,CLR,,0.00,WeatherDisplay:10.37,2013-07-14 10:07:00,
2013-07-14 05:12:00,79.6,76.7,29.85,SW,236,5.8,5.8,91,0.00,CLR,,0.00,WeatherDisplay:10.37,2013-07-14 10:12:00,
2013-07-14 05:17:00,79.5,76.3,29.85,SW,230,5.8,5.8,90,0.00,CLR,,0.00,WeatherDisplay:10.37,2013-07-14 10:17:00,
2013-07-14 05:22:00,79.4,76.2,29.85,SW,234,4.6,4.6,90,0.00,CLR,,0.00,WeatherDisplay:10.37,2013-07-14 10:22:00,
2013-07-14 05:27:00,79.3,76.1,29.85,WSW,238,4.6,4.6,90,0.00,CLR,,0.00,WeatherDisplay:10.37,2013-07-14 10:27:00,
2013-07-14 05:32:00,79.3,75.8,29.85,SW,223,4.6,4.6,89,0.00,CLR,,0.00,WeatherDisplay:10.37,2013-07-14 10:32:00,
2013-07-14 05:37:00,79.4,75.9,29.86,SSW,209,9.2,9.2,89,0.00,CLR,,0.00,WeatherDisplay:10.37,2013-07-14 10:37:00,
2013-07-14 05:42:00,79.4,75.9,29.85,SSW,200,5.8,5.8,89,0.00,CLR,,0.00,WeatherDisplay:10.37,2013-07-14 10:42:00,
2013-07-14 05:47:00,79.4,75.9,29.85,SW,214,4.6,4.6,89,0.00,CLR,,0.00,WeatherDisplay:10.37,2013-07-14 10:47:00,
2013-07-14 05:52:00,79.4,75.9,29.86,SSW,205,10.4,10.4,89,0.00,CLR,,0.00,WeatherDisplay:10.37,2013-07-14 10:52:00,
2013-07-14 05:57:00,79.5,76.0,29.85,SSW,204,5.8,5.8,89,0.00,CLR,,0.00,WeatherDisplay:10.37,2013-07-14 10:57:00,
2013-07-14 06:02:00,79.5,76.0,29.85,SW,231,9.2,9.2,89,0.00,CLR,,0.00,WeatherDisplay:10.37,2013-07-14 11:02:00,
2013-07-14 06:07:00,79.5,76.0,29.85,SW,221,5.8,5.8,89,0.00,CLR,,0.00,WeatherDisplay:10.37,2013-07-14 11:07:00,
2013-07-14 06:12:00,79.4,75.9,29.85,WSW,243,9.2,9.2,89,0.00,CLR,,0.00,WeatherDisplay:10.37,2013-07-14 11:12:00,
2013-07-14 06:17:00,79.4,76.2,29.86,WSW,241,10.4,10.4,90,0.00,CLR,,0.00,WeatherDisplay:10.37,2013-07-14 11:17:00,
2013-07-14 06:22:00,79.4,75.9,29.86,SSW,197,3.5,3.5,89,0.00,CLR,,0.00,WeatherDisplay:10.37,2013-07-14 11:22:00,
2013-07-14 06:27:00,79.4,75.9,29.86,South,188,4.6,4.6,89,0.00,CLR,,0.00,WeatherDisplay:10.37,2013-07-14 11:27:00,
2013-07-14 06:32:00,79.3,75.8,29.86,SE,142,4.6,4.6,89,0.00,CLR,,0.00,WeatherDisplay:10.37,2013-07-14 11:32:00,
2013-07-14 06:37:00,79.3,76.1,29.86,SW,221,3.5,3.5,90,0.00,CLR,,0.00,WeatherDisplay:10.37,2013-07-14 11:37:00,
2013-07-14 06:42:00,79.2,76.0,29.87,WSW,240,1.1,1.1,90,0.00,CLR,,0.00,WeatherDisplay:10.37,2013-07-14 11:42:00,
2013-07-14 06:47:00,79.3,76.1,29.87,SW,224,2.3,2.3,90,0.00,CLR,,0.00,WeatherDisplay:10.37,2013-07-14 11:47:00,
2013-07-14 06:52:00,79.3,76.1,29.87,SSW,209,4.6,4.6,90,0.00,CLR,,0.00,WeatherDisplay:10.37,2013-07-14 11:52:00,
2013-07-14 06:57:00,79.2,76.0,29.87,SW,231,5.8,5.8,90,0.00,CLR,,0.00,WeatherDisplay:10.37,2013-07-14 11:57:00,
2013-07-14 07:02:00,79.2,76.0,29.87,South,189,5.8,5.8,90,0.00,CLR,,0.00,WeatherDisplay:10.37,2013-07-14 12:02:00,
2013-07-14 07:07:00,79.2,76.0,29.88,SSW,213,4.6,4.6,90,0.00,CLR,,0.00,WeatherDisplay:10.37,2013-07-14 12:07:00,
2013-07-14 07:12:00,79.3,76.1,29.88,SW,221,4.6,4.6,90,0.00,CLR,,0.00,WeatherDisplay:10.37,2013-07-14 12:12:00,
2013-07-14 07:17:00,79.3,75.8,29.87,SSW,197,10.4,10.4,89,0.00,CLR,,0.00,WeatherDisplay:10.37,2013-07-14 12:17:00,
2013-07-14 07:22:00,79.4,75.9,29.87,South,189,5.8,5.8,89,0.00,CLR,,0.00,WeatherDisplay:10.37,2013-07-14 12:22:00,
2013-07-14 07:27:00,79.5,76.0,29.87,SSW,205,4.6,4.6,89,0.00,CLR,,0.00,WeatherDisplay:10.37,2013-07-14 12:27:00,
2013-07-14 07:32:00,79.6,76.1,29.87,South,181,10.4,10.4,89,0.00,CLR,,0.00,WeatherDisplay:10.37,2013-07-14 12:32:00,
2013-07-14 07:37:00,79.9,76.4,29.87,SSW,207,6.9,6.9,89,0.00,CLR,,0.00,WeatherDisplay:10.37,2013-07-14 12:37:00,
2013-07-14 07:42:00,80.0,76.1,29.87,South,184,4.6,4.6,88,0.00,CLR,,0.00,WeatherDisplay:10.37,2013-07-14 12:42:00,
2013-07-14 07:47:00,80.1,76.2,29.87,SSW,202,4.6,4.6,88,0.00,CLR,,0.00,WeatherDisplay:10.37,2013-07-14 12:47:00,
2013-07-14 07:52:00,80.2,76.3,29.87,South,184,4.6,4.6,88,0.00,CLR,,0.00,WeatherDisplay:10.37,2013-07-14 12:52:00,
2013-07-14 07:57:00,80.3,76.4,29.88,SSW,208,3.5,3.5,88,0.00,CLR,,0.00,WeatherDisplay:10.37,2013-07-14 12:57:00,
2013-07-14 08:02:00,80.5,76.6,29.88,SSE,164,4.6,4.6,88,0.00,CLR,,0.00,WeatherDisplay:10.37,2013-07-14 13:02:00,
2013-07-14 08:07:00,80.7,76.5,29.87,SSW,206,9.2,9.2,87,0.00,CLR,,0.00,WeatherDisplay:10.37,2013-07-14 13:07:00,
2013-07-14 08:12:00,80.8,76.6,29.88,SSW,212,3.5,3.5,87,0.00,CLR,,0.00,WeatherDisplay:10.37,2013-07-14 13:12:00,
2013-07-14 08:17:00,80.8,76.6,29.88,SSW,198,10.4,10.4,87,0.00,CLR,,0.00,WeatherDisplay:10.37,2013-07-14 13:17:00,
2013-07-14 08:22:00,80.8,76.6,29.88,SW,215,5.8,5.8,87,0.00,CLR,,0.00,WeatherDisplay:10.37,2013-07-14 13:22:00,
2013-07-14 08:27:00,80.8,76.6,29.88,South,185,5.8,5.8,87,0.00,CLR,,0.00,WeatherDisplay:10.37,2013-07-14 13:27:00,
2013-07-14 08:32:00,80.8,76.6,29.88,SW,232,5.8,5.8,87,0.00,CLR,,0.00,WeatherDisplay:10.37,2013-07-14 13:32:00,
2013-07-14 08:37:00,81.0,76.8,29.88,SW,215,2.3,2.5,87,0.00,CLR,,0.00,WeatherDisplay:10.37,2013-07-14 13:37:00,
2013-07-14 08:42:00,81.1,76.9,29.88,SSW,207,5.8,5.8,87,0.00,CLR,,0.00,WeatherDisplay:10.37,2013-07-14 13:42:00,
2013-07-14 08:47:00,81.2,77.0,29.88,SSW,203,6.9,6.9,87,0.00,CLR,,0.00,WeatherDisplay:10.37,2013-07-14 13:47:00,
2013-07-14 08:52:00,81.5,76.9,29.88,South,186,5.8,5.8,86,0.00,CLR,,0.00,WeatherDisplay:10.37,2013-07-14 13:52:00,
2013-07-14 08:57:00,81.9,77.3,29.88,WSW,237,4.6,4.6,86,0.00,CLR,,0.00,WeatherDisplay:10.37,2013-07-14 13:57:00,
2013-07-14 09:02:00,82.4,77.4,29.88,SW,215,9.2,9.2,85,0.00,CLR,,0.00,WeatherDisplay:10.37,2013-07-14 14:02:00,
2013-07-14 09:07:00,82.7,77.4,29.88,SW,221,4.6,4.6,84,0.00,CLR,,0.00,WeatherDisplay:10.37,2013-07-14 14:07:00,
2013-07-14 09:12:00,82.5,76.8,29.88,SSW,197,5.8,5.8,83,0.00,CLR,,0.00,WeatherDisplay:10.37,2013-07-14 14:12:00,
2013-07-14 09:17:00,82.3,77.0,29.88,SSW,208,9.2,9.2,84,0.00,CLR,,0.00,WeatherDisplay:10.37,2013-07-14 14:17:00,
2013-07-14 09:22:00,82.3,77.0,29.88,WSW,245,5.8,5.8,84,0.00,CLR,,0.00,WeatherDisplay:10.37,2013-07-14 14:22:00,
2013-07-14 09:27:00,82.3,77.0,29.88,SSW,201,6.9,6.9,84,0.00,CLR,,0.00,WeatherDisplay:10.37,2013-07-14 14:27:00,
2013-07-14 09:32:00,82.3,77.0,29.88,South,187,5.8,5.8,84,0.00,CLR,,0.00,WeatherDisplay:10.37,2013-07-14 14:32:00,
2013-07-14 09:37:00,82.6,77.3,29.88,SSE,167,4.6,4.6,84,0.00,CLR,,0.00,WeatherDisplay:10.37,2013-07-14 14:37:00,
2013-07-14 09:42:00,83.2,77.5,29.88,SSW,205,5.8,5.8,83,0.00,CLR,,0.00,WeatherDisplay:10.37,2013-07-14 14:42:00,
2013-07-14 09:47:00,83.8,78.1,29.88,SSW,194,5.8,5.8,83,0.00,CLR,,0.00,WeatherDisplay:10.37,2013-07-14 14:47:00,
2013-07-14 09:52:00,84.3,77.8,29.88,WSW,239,5.8,5.8,81,0.00,CLR,,0.00,WeatherDisplay:10.37,2013-07-14 14:52:00,
2013-07-14 09:57:00,84.5,78.0,29.88,WSW,238,5.8,5.8,81,0.00,CLR,,0.00,WeatherDisplay:10.37,2013-07-14 14:57:00,
2013-07-14 10:02:00,84.8,77.9,29.88,WSW,257,4.6,4.6,80,0.00,CLR,,0.00,WeatherDisplay:10.37,2013-07-14 15:02:00,
2013-07-14 10:07:00,85.2,78.3,29.88,WSW,243,3.5,3.5,80,0.00,CLR,,0.00,WeatherDisplay:10.37,2013-07-14 15:07:00,
2013-07-14 10:12:00,85.7,78.0,29.88,SW,214,5.8,5.8,78,0.00,CLR,,0.00,WeatherDisplay:10.37,2013-07-14 15:12:00,
2013-07-14 10:17:00,85.5,77.5,29.89,SSW,195,4.6,4.6,77,0.00,CLR,,0.00,WeatherDisplay:10.37,2013-07-14 15:17:00,
2013-07-14 10:22:00,85.5,77.9,29.89,South,170,4.6,4.6,78,0.00,CLR,,0.00,WeatherDisplay:10.37,2013-07-14 15:22:00,
2013-07-14 10:27:00,85.9,77.8,29.89,SSW,192,3.5,3.5,77,0.00,CLR,,0.00,WeatherDisplay:10.37,2013-07-14 15:27:00,
2013-07-14 10:32:00,86.1,77.2,29.89,South,185,6.9,6.9,75,0.00,CLR,,0.00,WeatherDisplay:10.37,2013-07-14 15:32:00,
2013-07-14 10:37:00,86.2,76.9,29.89,SW,217,6.9,6.9,74,0.00,CLR,,0.00,WeatherDisplay:10.37,2013-07-14 15:37:00,
2013-07-14 10:42:00,86.7,76.6,29.89,SE,138,5.3,5.3,72,0.00,CLR,,0.00,WeatherDisplay:10.37,2013-07-14 15:42:00,
2013-07-14 10:47:00,86.9,75.9,29.89,SW,236,6.9,6.9,70,0.00,CLR,,0.00,WeatherDisplay:10.37,2013-07-14 15:47:00,
2013-07-14 10:52:00,87.1,76.5,29.89,SE,126,5.8,5.8,71,0.00,CLR,,0.00,WeatherDisplay:10.37,2013-07-14 15:52:00,
2013-07-14 10:57:00,87.1,76.1,29.89,SE,129,10.4,10.4,70,0.00,CLR,,0.00,WeatherDisplay:10.37,2013-07-14 15:57:00,
2013-07-14 11:02:00,87.3,76.3,29.89,SSW,205,6.9,6.9,70,0.00,CLR,,0.00,WeatherDisplay:10.37,2013-07-14 16:02:00,
2013-07-14 11:07:00,87.8,76.4,29.89,SSW,194,6.9,6.9,69,0.00,CLR,,0.00,WeatherDisplay:10.37,2013-07-14 16:07:00,
2013-07-14 11:12:00,88.2,76.7,29.89,South,178,5.8,5.8,69,0.00,CLR,,0.00,WeatherDisplay:10.37,2013-07-14 16:12:00,
2013-07-14 11:17:00,88.2,76.3,29.89,SSW,209,11.5,11.5,68,0.00,CLR,,0.00,WeatherDisplay:10.37,2013-07-14 16:17:00,
2013-07-14 11:22:00,87.9,76.5,29.89,South,184,4.6,4.6,69,0.00,CLR,,0.00,WeatherDisplay:10.37,2013-07-14 16:22:00,
2013-07-14 11:27:00,87.9,76.9,29.90,SSW,203,4.6,4.6,70,0.00,CLR,,0.00,WeatherDisplay:10.37,2013-07-14 16:27:00,
2013-07-14 11:32:00,87.6,77.5,29.90,SE,132,5.8,5.8,72,0.00,CLR,,0.00,WeatherDisplay:10.37,2013-07-14 16:32:00,
2013-07-14 11:37:00,87.2,78.3,29.90,SE,139,6.9,6.9,75,0.00,CLR,,0.00,WeatherDisplay:10.37,2013-07-14 16:37:00,
2013-07-14 11:42:00,87.0,77.7,29.89,East,99,10.4,10.4,74,0.00,CLR,,0.00,WeatherDisplay:10.37,2013-07-14 16:42:00,
2013-07-14 11:47:00,86.6,77.3,29.90,SE,139,5.8,5.8,74,0.00,CLR,,0.00,WeatherDisplay:10.37,2013-07-14 16:47:00,
2013-07-14 11:52:00,86.7,77.4,29.90,SE,129,9.2,9.2,74,0.00,CLR,,0.00,WeatherDisplay:10.37,2013-07-14 16:52:00,
2013-07-14 11:57:00,86.7,77.0,29.90,SE,141,11.5,11.5,73,0.00,CLR,,0.00,WeatherDisplay:10.37,2013-07-14 16:57:00,
2013-07-14 12:02:00,86.9,77.2,29.90,SSE,158,6.9,7.0,73,0.00,CLR,,0.00,WeatherDisplay:10.37,2013-07-14 17:02:00,
2013-07-14 12:07:00,87.2,77.1,29.90,SSE,151,10.4,10.4,72,0.00,CLR,,0.00,WeatherDisplay:10.37,2013-07-14 17:07:00,
2013-07-14 12:12:00,87.6,77.5,29.90,East,95,6.9,6.9,72,0.00,CLR,,0.00,WeatherDisplay:10.37,2013-07-14 17:12:00,
2013-07-14 12:17:00,87.5,77.4,29.91,SE,131,10.4,10.4,72,0.00,CLR,,0.00,WeatherDisplay:10.37,2013-07-14 17:17:00,
2013-07-14 12:22:00,87.1,77.4,29.91,SE,131,12.7,12.7,73,0.00,CLR,,0.00,WeatherDisplay:10.37,2013-07-14 17:22:00,
2013-07-14 12:27:00,87.0,77.3,29.90,SW,228,11.5,11.5,73,0.00,CLR,,0.00,WeatherDisplay:10.37,2013-07-14 17:27:00,
2013-07-14 12:32:00,87.2,77.1,29.90,SSE,151,6.9,6.9,72,0.00,CLR,,0.00,WeatherDisplay:10.37,2013-07-14 17:32:00,
2013-07-14 12:37:00,87.7,77.1,29.90,SSE,148,9.2,9.2,71,0.00,CLR,,0.00,WeatherDisplay:10.37,2013-07-14 17:37:00,
2013-07-14 12:42:00,87.6,77.0,29.90,SSE,151,11.5,11.5,71,0.00,CLR,,0.00,WeatherDisplay:10.37,2013-07-14 17:42:00,
2013-07-14 12:47:00,87.1,77.0,29.90,SE,129,9.2,9.2,72,0.00,CLR,,0.00,WeatherDisplay:10.37,2013-07-14 17:47:00,
2013-07-14 12:52:00,86.7,77.0,29.91,ESE,115,9.2,9.2,73,0.00,CLR,,0.00,WeatherDisplay:10.37,2013-07-14 17:52:00,
2013-07-14 12:57:00,86.8,76.7,29.91,ESE,115,6.9,6.9,72,0.00,CLR,,0.00,WeatherDisplay:10.37,2013-07-14 17:57:00,
2013-07-14 13:02:00,87.7,77.5,29.90,ESE,111,8.1,8.1,72,0.00,CLR,,0.00,WeatherDisplay:10.37,2013-07-14 18:02:00,
2013-07-14 13:07:00,88.1,77.5,29.90,SE,143,12.7,12.7,71,0.00,CLR,,0.00,WeatherDisplay:10.37,2013-07-14 18:07:00,
2013-07-14 13:12:00,88.0,77.4,29.90,SE,131,11.5,11.5,71,0.00,CLR,,0.00,WeatherDisplay:10.37,2013-07-14 18:12:00,
2013-07-14 13:17:00,88.2,77.6,29.90,ESE,120,12.7,12.7,71,0.00,CLR,,0.00,WeatherDisplay:10.37,2013-07-14 18:17:00,
2013-07-14 13:22:00,87.7,77.1,29.90,SSE,147,11.5,11.5,71,0.00,CLR,,0.00,WeatherDisplay:10.37,2013-07-14 18:22:00,
2013-07-14 13:27:00,88.2,78.0,29.90,ENE,75,11.5,11.5,72,0.00,CLR,,0.00,WeatherDisplay:10.37,2013-07-14 18:27:00,
2013-07-14 13:32:00,88.1,77.1,29.90,SE,142,15.0,15.0,70,0.00,CLR,,0.00,WeatherDisplay:10.37,2013-07-14 18:32:00,
2013-07-14 13:37:00,88.2,77.2,29.90,SE,125,10.4,10.4,70,0.00,CLR,,0.00,WeatherDisplay:10.37,2013-07-14 18:37:00,
2013-07-14 13:42:00,88.2,77.6,29.90,SE,124,11.5,11.5,71,0.00,CLR,,0.00,WeatherDisplay:10.37,2013-07-14 18:42:00,
2013-07-14 13:47:00,88.2,77.2,29.90,ESE,111,10.4,10.4,70,0.00,CLR,,0.00,WeatherDisplay:10.37,2013-07-14 18:47:00,
2013-07-14 13:52:00,88.5,77.9,29.89,ESE,112,9.4,9.4,71,0.00,CLR,,0.00,WeatherDisplay:10.37,2013-07-14 18:52:00,
2013-07-14 13:57:00,88.4,77.4,29.89,SE,129,12.7,12.7,70,0.00,CLR,,0.00,WeatherDisplay:10.37,2013-07-14 18:57:00,
2013-07-14 14:02:00,87.6,77.5,29.89,SSE,158,12.7,12.7,72,0.00,CLR,,0.00,WeatherDisplay:10.37,2013-07-14 19:02:00,
2013-07-14 14:07:00,87.4,77.7,29.88,SSE,153,12.7,12.7,73,0.00,CLR,,0.00,WeatherDisplay:10.37,2013-07-14 19:07:00,
2013-07-14 14:12:00,87.0,77.7,29.88,SE,146,18.4,18.4,74,0.00,CLR,,0.00,WeatherDisplay:10.37,2013-07-14 19:12:00,
2013-07-14 14:17:00,86.6,77.3,29.88,ESE,117,9.2,9.2,74,0.00,CLR,,0.00,WeatherDisplay:10.37,2013-07-14 19:17:00,
2013-07-14 14:22:00,86.4,77.1,29.88,ESE,120,11.5,11.5,74,0.00,CLR,,0.00,WeatherDisplay:10.37,2013-07-14 19:22:00,
2013-07-14 14:27:00,86.9,76.8,29.88,South,173,11.5,11.5,72,0.00,CLR,,0.00,WeatherDisplay:10.37,2013-07-14 19:27:00,
2013-07-14 14:32:00,87.0,77.3,29.88,SE,139,11.5,11.5,73,0.00,CLR,,0.00,WeatherDisplay:10.37,2013-07-14 19:32:00,
2013-07-14 14:37:00,87.0,77.7,29.88,East,96,12.6,12.6,74,0.00,CLR,,0.00,WeatherDisplay:10.37,2013-07-14 19:37:00,
2013-07-14 14:42:00,87.5,77.4,29.88,ESE,117,9.2,9.2,72,0.00,CLR,,0.00,WeatherDisplay:10.37,2013-07-14 19:42:00,
2013-07-14 14:47:00,87.1,77.0,29.88,SE,125,16.8,16.8,72,0.00,CLR,,0.00,WeatherDisplay:10.37,2013-07-14 19:47:00,
2013-07-14 14:52:00,87.1,77.0,29.87,ESE,111,15.0,15.0,72,0.00,CLR,,0.00,WeatherDisplay:10.37,2013-07-14 19:52:00,
2013-07-14 14:57:00,86.9,76.4,29.87,ESE,120,18.4,18.4,71,0.00,CLR,,0.00,WeatherDisplay:10.37,2013-07-14 19:57:00,
2013-07-14 15:02:00,86.9,76.8,29.86,SE,138,13.8,13.8,72,0.00,CLR,,0.00,WeatherDisplay:10.37,2013-07-14 20:02:00,
2013-07-14 15:07:00,87.2,77.1,29.86,East,92,15.0,15.0,72,0.00,CLR,,0.00,WeatherDisplay:10.37,2013-07-14 20:07:00,
2013-07-14 15:12:00,87.3,76.3,29.86,SE,142,16.1,16.1,70,0.00,CLR,,0.00,WeatherDisplay:10.37,2013-07-14 20:12:00,
2013-07-14 15:17:00,87.4,76.4,29.86,East,96,10.4,10.4,70,0.00,CLR,,0.00,WeatherDisplay:10.37,2013-07-14 20:17:00,
2013-07-14 15:22:00,87.9,76.0,29.86,East,86,11.5,11.5,68,0.00,CLR,,0.00,WeatherDisplay:10.37,2013-07-14 20:22:00,
2013-07-14 15:27:00,88.0,76.5,29.86,SE,136,17.3,17.3,69,0.00,CLR,,0.00,WeatherDisplay:10.37,2013-07-14 20:27:00,
2013-07-14 15:32:00,87.5,76.5,29.86,SE,134,17.3,17.3,70,0.00,CLR,,0.00,WeatherDisplay:10.37,2013-07-14 20:32:00,
2013-07-14 15:37:00,87.8,77.2,29.86,ESE,113,13.8,13.8,71,0.00,CLR,,0.00,WeatherDisplay:10.37,2013-07-14 20:37:00,
2013-07-14 15:42:00,87.1,77.0,29.86,SE,125,13.8,13.8,72,0.00,CLR,,0.00,WeatherDisplay:10.37,2013-07-14 20:42:00,
2013-07-14 15:47:00,87.1,77.0,29.85,SE,135,15.0,15.0,72,0.00,CLR,,0.00,WeatherDisplay:10.37,2013-07-14 20:47:00,
2013-07-14 15:52:00,86.8,76.7,29.85,SE,143,11.5,11.5,72,0.00,CLR,,0.00,WeatherDisplay:10.37,2013-07-14 20:52:00,
2013-07-14 15:57:00,86.9,76.8,29.85,East,90,16.1,16.1,72,0.00,CLR,,0.00,WeatherDisplay:10.37,2013-07-14 20:57:00,
2013-07-14 16:02:00,86.8,76.7,29.85,SE,133,16.1,16.1,72,0.00,CLR,,0.00,WeatherDisplay:10.37,2013-07-14 21:02:00,
2013-07-14 16:07:00,87.0,76.9,29.85,South,181,11.5,12.6,72,0.00,CLR,,0.00,WeatherDisplay:10.37,2013-07-14 21:07:00,
2013-07-14 16:12:00,86.7,77.0,29.85,ESE,120,18.4,18.4,73,0.00,CLR,,0.00,WeatherDisplay:10.37,2013-07-14 21:12:00,
2013-07-14 16:17:00,87.3,78.0,29.85,SE,133,15.0,15.0,74,0.00,CLR,,0.00,WeatherDisplay:10.37,2013-07-14 21:17:00,
2013-07-14 16:22:00,87.3,78.0,29.85,SE,140,11.5,11.5,74,0.00,CLR,,0.00,WeatherDisplay:10.37,2013-07-14 21:22:00,
2013-07-14 16:27:00,86.7,77.0,29.85,SE,125,18.4,18.4,73,0.00,CLR,,0.00,WeatherDisplay:10.37,2013-07-14 21:27:00,
2013-07-14 16:32:00,86.7,77.4,29.84,ESE,122,9.2,9.5,74,0.00,CLR,,0.00,WeatherDisplay:10.37,2013-07-14 21:32:00,
2013-07-14 16:37:00,86.7,77.0,29.84,SSE,165,10.4,10.4,73,0.00,CLR,,0.00,WeatherDisplay:10.37,2013-07-14 21:37:00,
2013-07-14 16:42:00,86.8,77.5,29.85,SE,141,17.3,17.3,74,0.00,CLR,,0.00,WeatherDisplay:10.37,2013-07-14 21:42:00,
2013-07-14 16:47:00,86.9,78.0,29.84,East,101,16.1,16.1,75,0.00,CLR,,0.00,WeatherDisplay:10.37,2013-07-14 21:47:00,
2013-07-14 16:52:00,86.8,77.9,29.84,ESE,112,17.3,17.3,75,0.00,CLR,,0.00,WeatherDisplay:10.37,2013-07-14 21:52:00,
2013-07-14 16:57:00,86.7,78.2,29.84,ESE,119,11.6,11.6,76,0.00,CLR,,0.00,WeatherDisplay:10.37,2013-07-14 21:57:00,
2013-07-14 17:02:00,86.9,78.4,29.84,SE,132,11.6,11.6,76,0.00,CLR,,0.00,WeatherDisplay:10.37,2013-07-14 22:02:00,
2013-07-14 17:07:00,86.4,77.5,29.83,SE,135,16.1,16.1,75,0.00,CLR,,0.00,WeatherDisplay:10.37,2013-07-14 22:07:00,
2013-07-14 17:12:00,86.2,77.7,29.83,SE,129,11.5,11.5,76,0.00,CLR,,0.00,WeatherDisplay:10.37,2013-07-14 22:12:00,
2013-07-14 17:13:00,86.2,77.7,29.83,SE,124,16.1,16.1,76,0.00,CLR,,0.00,WeatherDisplay:10.37,2013-07-14 22:13:00,
2013-07-14 17:18:00,86.3,77.8,29.83,SE,124,16.1,16.1,76,0.00,CLR,,0.00,WeatherDisplay:10.37,2013-07-14 22:18:00,
2013-07-14 17:23:00,85.8,77.8,29.83,SSE,162,16.1,16.1,77,0.00,CLR,,0.00,WeatherDisplay:10.37,2013-07-14 22:23:00,
2013-07-14 17:28:00,85.8,77.4,29.83,SE,125,11.5,11.5,76,0.00,CLR,,0.00,WeatherDisplay:10.37,2013-07-14 22:28:00,
2013-07-14 17:33:00,86.2,77.7,29.83,ESE,115,13.8,13.8,76,0.00,CLR,,0.00,WeatherDisplay:10.37,2013-07-14 22:33:00,
2013-07-14 17:38:00,86.5,77.2,29.83,SE,140,15.0,15.0,74,0.00,CLR,,0.00,WeatherDisplay:10.37,2013-07-14 22:38:00,
2013-07-14 17:43:00,85.9,76.6,29.83,ESE,122,15.0,15.0,74,0.00,CLR,,0.00,WeatherDisplay:10.37,2013-07-14 22:43:00,
2013-07-14 17:48:00,85.6,76.4,29.83,SE,145,17.3,17.3,74,0.00,CLR,,0.00,WeatherDisplay:10.37,2013-07-14 22:48:00,
2013-07-14 17:53:00,85.4,76.6,29.83,SE,134,16.1,16.1,75,0.00,CLR,,0.00,WeatherDisplay:10.37,2013-07-14 22:53:00,
2013-07-14 17:58:00,85.4,76.6,29.83,SE,131,13.8,13.8,75,0.00,CLR,,0.00,WeatherDisplay:10.37,2013-07-14 22:58:00,
2013-07-14 18:03:00,85.4,76.6,29.83,SE,125,12.7,12.7,75,0.00,CLR,,0.00,WeatherDisplay:10.37,2013-07-14 23:03:00,
2013-07-14 18:08:00,85.5,76.7,29.82,ESE,119,11.5,11.5,75,0.00,CLR,,0.00,WeatherDisplay:10.37,2013-07-14 23:08:00,
2013-07-14 18:13:00,85.4,77.0,29.82,ESE,122,11.5,11.5,76,0.00,CLR,,0.00,WeatherDisplay:10.37,2013-07-14 23:13:00,
2013-07-14 18:18:00,85.0,75.8,29.82,East,88,13.8,13.8,74,0.00,CLR,,0.00,WeatherDisplay:10.37,2013-07-14 23:18:00,
2013-07-14 18:23:00,84.7,76.7,29.82,ESE,108,20.7,20.7,77,0.00,CLR,,0.00,WeatherDisplay:10.37,2013-07-14 23:23:00,
2013-07-14 18:28:00,84.1,76.1,29.82,ESE,115,18.4,18.4,77,0.00,CLR,,0.00,WeatherDisplay:10.37,2013-07-14 23:28:00,
2013-07-14 18:33:00,84.0,76.4,29.82,East,99,12.7,12.7,78,0.00,CLR,,0.00,WeatherDisplay:10.37,2013-07-14 23:33:00,
2013-07-14 18:38:00,83.8,76.2,29.82,ESE,112,18.4,18.4,78,0.00,CLR,,0.00,WeatherDisplay:10.37,2013-07-14 23:38:00,
2013-07-14 18:43:00,83.7,76.5,29.82,ESE,109,16.1,16.1,79,0.00,CLR,,0.00,WeatherDisplay:10.37,2013-07-14 23:43:00,
2013-07-14 18:48:00,83.6,76.8,29.81,SE,124,17.3,17.3,80,0.00,CLR,,0.00,WeatherDisplay:10.37,2013-07-14 23:48:00,
2013-07-14 18:53:00,83.4,76.6,29.82,East,96,18.4,18.4,80,0.00,CLR,,0.00,WeatherDisplay:10.37,2013-07-14 23:53:00,
2013-07-14 18:58:00,83.3,76.9,29.82,SE,127,16.1,16.1,81,0.00,CLR,,0.00,WeatherDisplay:10.37,2013-07-14 23:58:00,
2013-07-14 19:03:00,83.3,76.9,29.82,ESE,112,5.8,5.8,81,0.00,CLR,,0.00,WeatherDisplay:10.37,2013-07-15 00:03:00,
2013-07-14 19:08:00,83.2,77.1,29.82,SE,130,12.7,12.7,82,0.00,CLR,,0.00,WeatherDisplay:10.37,2013-07-15 00:08:00,
2013-07-14 19:13:00,83.1,77.0,29.82,SE,140,5.8,5.8,82,0.00,CLR,,0.00,WeatherDisplay:10.37,2013-07-15 00:13:00,
2013-07-14 19:18:00,83.1,77.0,29.82,ESE,111,18.4,18.4,82,0.00,CLR,,0.00,WeatherDisplay:10.37,2013-07-15 00:18:00,
2013-07-14 19:23:00,82.9,76.5,29.82,SE,132,13.8,13.8,81,0.00,CLR,,0.00,WeatherDisplay:10.37,2013-07-15 00:23:00,
2013-07-14 19:28:00,82.9,76.8,29.83,SE,131,13.8,13.8,82,0.00,CLR,,0.00,WeatherDisplay:10.37,2013-07-15 00:28:00,
2013-07-14 19:33:00,82.8,77.1,29.83,SSE,152,13.8,13.8,83,0.00,CLR,,0.00,WeatherDisplay:10.37,2013-07-15 00:33:00,
2013-07-14 19:38:00,82.7,77.0,29.83,ESE,108,17.9,17.9,83,0.00,CLR,,0.00,WeatherDisplay:10.37,2013-07-15 00:38:00,
2013-07-14 19:43:00,82.6,76.9,29.83,ESE,106,12.7,12.7,83,0.00,CLR,,0.00,WeatherDisplay:10.37,2013-07-15 00:43:00,
2013-07-14 19:48:00,82.6,76.5,29.83,SE,130,16.1,16.1,82,0.00,CLR,,0.00,WeatherDisplay:10.37,2013-07-15 00:48:00,
2013-07-14 19:53:00,82.6,76.9,29.83,SSE,158,8.1,8.1,83,0.00,CLR,,0.00,WeatherDisplay:10.37,2013-07-15 00:53:00,
2013-07-14 19:58:00,82.6,77.3,29.83,ESE,105,15.0,15.0,84,0.00,CLR,,0.00,WeatherDisplay:10.37,2013-07-15 00:58:00,
2013-07-14 20:03:00,82.6,77.3,29.83,South,173,11.5,11.5,84,0.00,CLR,,0.00,WeatherDisplay:10.37,2013-07-15 01:03:00,
2013-07-14 20:08:00,82.5,77.2,29.83,ESE,113,13.8,13.8,84,0.00,CLR,,0.00,WeatherDisplay:10.37,2013-07-15 01:08:00,
2013-07-14 20:13:00,82.4,76.7,29.83,ESE,123,13.8,13.8,83,0.00,CLR,,0.00,WeatherDisplay:10.37,2013-07-15 01:13:00,
2013-07-14 20:18:00,82.4,76.7,29.83,SE,137,9.2,9.2,83,0.00,CLR,,0.00,WeatherDisplay:10.37,2013-07-15 01:18:00,
2013-07-14 20:23:00,82.4,76.7,29.83,ESE,117,13.8,13.8,83,0.00,CLR,,0.00,WeatherDisplay:10.37,2013-07-15 01:23:00,
2013-07-14 20:28:00,82.4,76.3,29.83,ESE,119,16.1,16.1,82,0.00,CLR,,0.00,WeatherDisplay:10.37,2013-07-15 01:28:00,
2013-07-14 20:33:00,82.4,76.7,29.83,ESE,117,9.2,9.2,83,0.00,CLR,,0.00,WeatherDisplay:10.37,2013-07-15 01:33:00,
2013-07-14 20:38:00,82.4,77.1,29.83,SSE,152,12.7,12.7,84,0.00,CLR,,0.00,WeatherDisplay:10.37,2013-07-15 01:38:00,
2013-07-14 20:43:00,82.3,77.0,29.83,SSE,150,12.7,12.7,84,0.00,CLR,,0.00,WeatherDisplay:10.37,2013-07-15 01:43:00,
2013-07-14 20:48:00,82.3,77.0,29.83,ESE,106,11.5,11.5,84,0.00,CLR,,0.00,WeatherDisplay:10.37,2013-07-15 01:48:00,
2013-07-14 20:53:00,82.2,76.9,29.83,SE,139,15.0,15.0,84,0.00,CLR,,0.00,WeatherDisplay:10.37,2013-07-15 01:53:00,
2013-07-14 20:58:00,82.3,77.3,29.84,ESE,103,11.5,11.5,85,0.00,CLR,,0.00,WeatherDisplay:10.37,2013-07-15 01:58:00,
2013-07-14 21:03:00,82.3,77.0,29.84,SE,134,13.8,13.8,84,0.00,CLR,,0.00,WeatherDisplay:10.37,2013-07-15 02:03:00,
2013-07-14 21:08:00,82.3,77.0,29.85,SSE,158,10.4,10.4,84,0.00,CLR,,0.00,WeatherDisplay:10.37,2013-07-15 02:08:00,
2013-07-14 21:13:00,82.3,76.6,29.86,ESE,119,11.5,11.5,83,0.00,CLR,,0.00,WeatherDisplay:10.37,2013-07-15 02:13:00,
2013-07-14 21:18:00,82.3,77.0,29.86,ESE,115,5.8,5.8,84,0.00,CLR,,0.00,WeatherDisplay:10.37,2013-07-15 02:18:00,
2013-07-14 21:23:00,82.3,76.6,29.86,East,101,4.6,4.6,83,0.00,CLR,,0.00,WeatherDisplay:10.37,2013-07-15 02:23:00,
2013-07-14 21:28:00,82.4,76.7,29.86,SE,140,6.9,6.9,83,0.00,CLR,,0.00,WeatherDisplay:10.37,2013-07-15 02:28:00,
2013-07-14 21:33:00,82.3,76.6,29.85,ESE,102,6.9,7.5,83,0.00,CLR,,0.00,WeatherDisplay:10.37,2013-07-15 02:33:00,
2013-07-14 21:38:00,82.2,76.5,29.85,ESE,115,10.4,10.4,83,0.00,CLR,,0.00,WeatherDisplay:10.37,2013-07-15 02:38:00,
2013-07-14 21:43:00,82.1,76.4,29.85,SSE,153,12.7,12.7,83,0.00,CLR,,0.00,WeatherDisplay:10.37,2013-07-15 02:43:00,
2013-07-14 21:48:00,82.1,76.4,29.85,ESE,106,9.2,9.2,83,0.00,CLR,,0.00,WeatherDisplay:10.37,2013-07-15 02:48:00,
2013-07-14 21:53:00,82.1,76.4,29.86,East,97,10.4,10.4,83,0.00,CLR,,0.00,WeatherDisplay:10.37,2013-07-15 02:53:00,
2013-07-14 21:58:00,82.1,76.4,29.86,ESE,121,12.7,12.7,83,0.00,CLR,,0.00,WeatherDisplay:10.37,2013-07-15 02:58:00,
2013-07-14 22:03:00,82.0,76.3,29.86,ESE,117,12.7,12.7,83,0.00,CLR,,0.00,WeatherDisplay:10.37,2013-07-15 03:03:00,
2013-07-14 22:08:00,82.0,76.3,29.86,East,95,10.4,10.4,83,0.00,CLR,,0.00,WeatherDisplay:10.37,2013-07-15 03:08:00,
2013-07-14 22:13:00,82.0,76.3,29.86,SE,127,9.2,9.2,83,0.00,CLR,,0.00,WeatherDisplay:10.37,2013-07-15 03:13:00,
2013-07-14 22:18:00,82.0,76.7,29.86,SE,144,12.7,12.7,84,0.00,CLR,,0.00,WeatherDisplay:10.37,2013-07-15 03:18:00,
2013-07-14 22:23:00,81.9,76.2,29.86,SE,142,16.1,16.1,83,0.00,CLR,,0.00,WeatherDisplay:10.37,2013-07-15 03:23:00,
2013-07-14 22:28:00,82.0,76.7,29.86,SSE,163,9.2,9.2,84,0.00,CLR,,0.00,WeatherDisplay:10.37,2013-07-15 03:28:00,
2013-07-14 22:33:00,82.0,76.7,29.86,SE,126,15.0,15.0,84,0.00,CLR,,0.00,WeatherDisplay:10.37,2013-07-15 03:33:00,
2013-07-14 22:38:00,81.9,76.6,29.86,SE,142,12.7,12.7,84,0.00,CLR,,0.00,WeatherDisplay:10.37,2013-07-15 03:38:00,
2013-07-14 22:43:00,81.8,76.1,29.86,SE,131,11.5,11.5,83,0.00,CLR,,0.00,WeatherDisplay:10.37,2013-07-15 03:43:00,
2013-07-14 22:48:00,81.8,76.1,29.86,ESE,118,13.8,13.8,83,0.00,CLR,,0.00,WeatherDisplay:10.37,2013-07-15 03:48:00,
2013-07-14 22:53:00,81.8,76.1,29.86,ESE,115,10.4,10.4,83,0.00,CLR,,0.00,WeatherDisplay:10.37,2013-07-15 03:53:00,
2013-07-14 22:58:00,81.8,76.1,29.86,ESE,114,9.2,9.2,83,0.00,CLR,,0.00,WeatherDisplay:10.37,2013-07-15 03:58:00,
2013-07-14 23:01:00,81.8,76.1,29.86,SSE,155,11.5,11.5,83,0.00,CLR,,0.00,WeatherDisplay:10.37,2013-07-15 04:01:00,
2013-07-14 23:03:00,81.8,76.1,29.86,ESE,107,9.2,9.2,83,0.00,CLR,,0.00,WeatherDisplay:10.37,2013-07-15 04:03:00,
2013-07-14 23:08:00,81.8,76.1,29.86,SE,124,12.7,12.7,83,0.00,CLR,,0.00,WeatherDisplay:10.37,2013-07-15 04:08:00,
2013-07-14 23:13:00,81.8,76.1,29.86,SE,127,15.0,15.0,83,0.00,CLR,,0.00,WeatherDisplay:10.37,2013-07-15 04:13:00,
2013-07-14 23:18:00,81.8,76.1,29.86,SE,137,9.2,9.2,83,0.00,CLR,,0.00,WeatherDisplay:10.37,2013-07-15 04:18:00,
2013-07-14 23:23:00,81.8,75.8,29.86,ESE,120,10.4,10.4,82,0.00,CLR,,0.00,WeatherDisplay:10.37,2013-07-15 04:23:00,
2013-07-14 23:28:00,81.7,75.7,29.86,ESE,122,9.4,9.4,82,0.00,CLR,,0.00,WeatherDisplay:10.37,2013-07-15 04:28:00,
2013-07-14 23:33:00,81.8,75.8,29.86,SE,136,11.5,11.5,82,0.00,CLR,,0.00,WeatherDisplay:10.37,2013-07-15 04:33:00,
2013-07-14 23:38:00,81.7,76.0,29.86,ESE,113,10.4,10.4,83,0.00,CLR,,0.00,WeatherDisplay:10.37,2013-07-15 04:38:00,
2013-07-14 23:43:00,81.7,76.0,29.86,ESE,122,13.8,13.8,83,0.00,CLR,,0.00,WeatherDisplay:10.37,2013-07-15 04:43:00,
2013-07-14 23:48:00,81.7,76.0,29.86,ESE,119,9.2,9.2,83,0.00,CLR,,0.00,WeatherDisplay:10.37,2013-07-15 04:48:00,
2013-07-14 23:53:00,81.7,76.0,29.86,East,98,12.6,12.6,83,0.00,CLR,,0.00,WeatherDisplay:10.37,2013-07-15 04:53:00,
2013-07-14 23:58:00,81.7,76.4,29.86,ESE,113,16.1,16.1,84,0.00,CLR,,0.00,WeatherDisplay:10.37,2013-07-15 04:58:00,